createdAt,value
2022-11-16T00:00:02.760Z,25.60
2022-11-16T00:02:36.952Z,25.60
2022-11-16T00:05:08.148Z,25.70
2022-11-16T00:07:38.826Z,25.70
2022-11-16T00:10:09.822Z,25.90
2022-11-16T00:12:41.180Z,26.00
2022-11-16T00:15:11.554Z,26.00
2022-11-16T00:17:42.745Z,26.10
2022-11-16T00:20:14.397Z,26.00
2022-11-16T00:22:44.950Z,25.90
2022-11-16T00:25:15.194Z,26.00
2022-11-16T00:27:46.256Z,26.10
2022-11-16T00:30:17.263Z,26.10
2022-11-16T00:32:47.340Z,26.20
2022-11-16T00:35:17.750Z,26.20
2022-11-16T00:37:48.184Z,26.20
2022-11-16T00:40:18.773Z,26.50
2022-11-16T00:42:49.256Z,26.60
2022-11-16T00:45:19.362Z,26.40
2022-11-16T00:47:50.219Z,26.40
2022-11-16T00:50:21.361Z,26.50
2022-11-16T00:52:51.930Z,26.80
2022-11-16T00:55:22.862Z,27.10
2022-11-16T00:57:53.379Z,27.30
2022-11-16T01:00:26.447Z,27.50
2022-11-16T01:02:57.363Z,27.50
2022-11-16T01:05:27.473Z,27.80
2022-11-16T01:07:59.330Z,28.00
2022-11-16T01:10:31.094Z,28.00
2022-11-16T01:13:02.144Z,28.10
2022-11-16T01:15:32.941Z,28.20
2022-11-16T01:18:03.493Z,28.40
2022-11-16T01:20:33.843Z,28.40
2022-11-16T01:23:05.037Z,28.30
2022-11-16T01:25:35.735Z,28.20
2022-11-16T01:28:06.419Z,28.60
2022-11-16T01:30:50.928Z,28.70
2022-11-16T01:33:21.442Z,28.60
2022-11-16T01:35:52.724Z,28.50
2022-11-16T01:38:28.556Z,28.50
2022-11-16T01:41:01.718Z,28.80
2022-11-16T01:44:11.351Z,29.00
2022-11-16T01:46:48.958Z,29.20
2022-11-16T01:49:24.291Z,29.10
2022-11-16T01:52:03.462Z,29.20
2022-11-16T01:54:40.643Z,29.30
2022-11-16T01:57:15.087Z,29.60
2022-11-16T02:00:00.759Z,29.40
2022-11-16T02:02:43.833Z,29.60
2022-11-16T02:05:42.198Z,29.50
2022-11-16T02:08:57.449Z,29.90
2022-11-16T02:12:04.712Z,30.00
2022-11-16T02:15:14.546Z,30.00
2022-11-16T02:18:20.987Z,29.90
2022-11-16T02:21:26.066Z,30.10
2022-11-16T02:24:31.316Z,30.20
2022-11-16T02:27:28.301Z,30.20
2022-11-16T02:29:59.084Z,30.40
2022-11-16T02:32:55.246Z,30.40
2022-11-16T02:35:51.143Z,30.50
2022-11-16T02:38:33.471Z,30.30
2022-11-16T02:41:22.268Z,30.40
2022-11-16T02:44:17.859Z,30.60
2022-11-16T02:46:53.491Z,30.50
2022-11-16T02:49:27.996Z,30.90
2022-11-16T02:52:00.109Z,31.10
2022-11-16T02:54:31.040Z,31.30
2022-11-16T02:57:29.568Z,31.60
2022-11-16T03:00:02.321Z,31.50
2022-11-16T03:03:01.764Z,31.30
2022-11-16T03:05:57.346Z,31.30
2022-11-16T03:08:40.714Z,31.70
2022-11-16T03:11:34.419Z,32.20
2022-11-16T03:14:14.797Z,32.20
2022-11-16T03:16:50.142Z,32.10
2022-11-16T03:19:38.112Z,32.30
2022-11-16T03:22:24.632Z,32.40
2022-11-16T03:24:55.855Z,32.40
2022-11-16T03:27:42.491Z,32.60
2022-11-16T03:30:23.189Z,31.90
2022-11-16T03:33:22.278Z,31.70
2022-11-16T03:36:10.771Z,31.60
2022-11-16T03:38:44.649Z,30.60
2022-11-16T03:41:16.984Z,30.70
2022-11-16T03:43:50.510Z,31.70
2022-11-16T03:46:21.984Z,31.90
2022-11-16T03:49:00.738Z,32.30
2022-11-16T03:51:35.313Z,31.90
2022-11-16T03:54:07.217Z,31.50
2022-11-16T03:56:38.892Z,31.70
2022-11-16T03:59:09.341Z,32.50
2022-11-16T04:01:44.568Z,32.50
2022-11-16T04:04:36.641Z,32.50
2022-11-16T04:07:28.303Z,31.60
2022-11-16T04:10:18.525Z,31.50
2022-11-16T04:13:08.712Z,32.10
2022-11-16T04:15:59.340Z,32.80
2022-11-16T04:18:50.026Z,33.30
2022-11-16T04:21:46.753Z,33.40
2022-11-16T04:24:22.230Z,32.70
2022-11-16T04:27:17.705Z,32.40
2022-11-16T04:29:49.363Z,32.90
2022-11-16T04:32:41.459Z,32.60
2022-11-16T04:35:31.976Z,32.40
2022-11-16T04:38:02.611Z,33.00
2022-11-16T04:40:37.256Z,33.20
2022-11-16T04:43:08.959Z,33.20
2022-11-16T04:46:02.427Z,32.80
2022-11-16T04:48:41.776Z,33.50
2022-11-16T04:51:13.246Z,33.60
2022-11-16T04:53:43.667Z,34.10
2022-11-16T04:56:21.581Z,34.20
2022-11-16T04:58:52.622Z,33.90
2022-11-16T05:01:42.953Z,33.90
2022-11-16T05:04:13.738Z,34.20
2022-11-16T05:06:44.200Z,34.30
2022-11-16T05:09:15.381Z,34.20
2022-11-16T05:11:46.006Z,34.30
2022-11-16T05:14:16.465Z,34.40
2022-11-16T05:16:47.323Z,33.90
2022-11-16T05:19:37.434Z,33.50
2022-11-16T05:22:08.392Z,33.40
2022-11-16T05:24:38.948Z,33.80
2022-11-16T05:27:11.703Z,33.90
2022-11-16T05:29:43.555Z,34.00
2022-11-16T05:32:17.167Z,34.50
2022-11-16T05:34:48.479Z,34.60
2022-11-16T05:37:20.747Z,34.90
2022-11-16T05:39:51.153Z,34.90
2022-11-16T05:42:22.986Z,34.90
2022-11-16T05:44:53.103Z,35.20
2022-11-16T05:47:23.861Z,35.00
2022-11-16T05:49:54.712Z,35.10
2022-11-16T05:52:26.992Z,35.00
2022-11-16T05:55:02.540Z,34.70
2022-11-16T05:57:36.801Z,34.90
2022-11-16T06:00:08.007Z,35.10
2022-11-16T06:02:46.113Z,35.20
2022-11-16T06:05:24.673Z,35.00
2022-11-16T06:07:56.706Z,34.50
2022-11-16T06:10:27.943Z,35.10
2022-11-16T06:12:58.729Z,35.40
2022-11-16T06:15:29.175Z,35.40
2022-11-16T06:18:00.812Z,34.80
2022-11-16T06:20:31.651Z,34.90
2022-11-16T06:23:02.438Z,35.10
2022-11-16T06:25:33.750Z,35.50
2022-11-16T06:28:07.922Z,36.10
2022-11-16T06:30:41.891Z,36.00
2022-11-16T06:33:12.641Z,36.10
2022-11-16T06:35:43.110Z,36.20
2022-11-16T06:38:19.999Z,36.10
2022-11-16T06:40:54.219Z,36.00
2022-11-16T06:43:27.951Z,35.60
2022-11-16T06:46:00.178Z,35.20
2022-11-16T06:48:30.836Z,35.20
2022-11-16T06:51:01.529Z,35.40
2022-11-16T06:53:32.542Z,35.60
2022-11-16T06:56:06.985Z,35.80
2022-11-16T06:58:46.189Z,36.00
2022-11-16T07:01:18.989Z,36.50
2022-11-16T07:03:52.239Z,36.50
2022-11-16T07:06:22.723Z,36.50
2022-11-16T07:08:53.854Z,36.50
2022-11-16T07:11:28.264Z,36.20
2022-11-16T07:14:00.547Z,35.40
2022-11-16T07:16:31.951Z,34.70
2022-11-16T07:19:05.747Z,34.90
2022-11-16T07:21:40.427Z,35.20
2022-11-16T07:24:16.362Z,34.70
2022-11-16T07:26:47.272Z,34.60
2022-11-16T07:29:23.084Z,34.20
2022-11-16T07:32:12.692Z,34.10
2022-11-16T07:35:02.650Z,33.80
2022-11-16T07:37:34.722Z,33.90
2022-11-16T07:40:06.857Z,34.80
2022-11-16T07:42:37.566Z,35.40
2022-11-16T07:45:27.909Z,36.00
2022-11-16T07:48:03.652Z,36.00
2022-11-16T07:50:54.209Z,36.00
2022-11-16T07:53:26.092Z,36.00
2022-11-16T07:55:56.995Z,36.00
2022-11-16T07:58:31.660Z,36.00
2022-11-16T08:01:21.856Z,35.40
2022-11-16T08:03:56.216Z,35.10
2022-11-16T08:06:29.604Z,35.50
2022-11-16T08:09:01.156Z,35.10
2022-11-16T08:11:33.049Z,35.70
2022-11-16T08:14:03.955Z,35.30
2022-11-16T08:16:34.957Z,35.10
2022-11-16T08:19:12.829Z,35.30
2022-11-16T08:21:43.386Z,35.50
2022-11-16T08:24:14.576Z,36.00
2022-11-16T08:26:46.959Z,36.00
2022-11-16T08:29:18.278Z,36.10
2022-11-16T08:31:54.126Z,36.10
2022-11-16T08:34:25.737Z,36.40
2022-11-16T08:37:01.098Z,36.50
2022-11-16T08:39:45.092Z,36.30
2022-11-16T08:42:16.042Z,36.10
2022-11-16T08:44:49.967Z,35.70
2022-11-16T08:47:24.750Z,35.80
2022-11-16T08:49:58.355Z,35.80
2022-11-16T08:52:32.288Z,35.50
2022-11-16T08:55:04.681Z,35.40
2022-11-16T08:57:35.808Z,35.50
2022-11-16T09:00:12.975Z,35.50
2022-11-16T09:02:43.778Z,35.50
2022-11-16T09:05:14.608Z,35.40
2022-11-16T09:07:47.357Z,35.20
2022-11-16T09:10:20.574Z,35.00
2022-11-16T09:12:51.920Z,34.80
2022-11-16T09:15:22.695Z,34.80
2022-11-16T09:17:56.420Z,34.70
2022-11-16T09:20:27.916Z,34.70
2022-11-16T09:22:59.048Z,34.50
2022-11-16T09:25:29.741Z,34.30
2022-11-16T09:28:00.480Z,34.30
2022-11-16T09:30:30.949Z,34.30
2022-11-16T09:33:02.700Z,34.50
2022-11-16T09:35:33.148Z,34.30
2022-11-16T09:38:03.763Z,34.40
2022-11-16T09:40:38.520Z,34.40
2022-11-16T09:43:40.913Z,34.50
2022-11-16T09:46:44.017Z,34.40
2022-11-16T09:49:27.586Z,34.30
2022-11-16T09:52:03.877Z,34.20
2022-11-16T09:54:39.847Z,33.70
2022-11-16T09:57:14.445Z,33.50
2022-11-16T09:59:50.539Z,33.50
2022-11-16T10:02:46.070Z,33.50
2022-11-16T10:05:48.490Z,33.50
2022-11-16T10:08:47.422Z,33.40
2022-11-16T10:11:42.771Z,33.10
2022-11-16T10:14:47.528Z,33.30
2022-11-16T10:17:48.463Z,33.40
2022-11-16T10:20:57.737Z,33.40
2022-11-16T10:23:57.289Z,33.30
2022-11-16T10:26:56.852Z,33.20
2022-11-16T10:30:06.766Z,33.30
2022-11-16T10:32:57.873Z,33.20
2022-11-16T10:35:41.524Z,33.10
2022-11-16T10:38:18.633Z,33.10
2022-11-16T10:40:55.217Z,32.50
2022-11-16T10:43:34.523Z,32.40
2022-11-16T10:46:28.468Z,32.20
2022-11-16T10:49:23.177Z,32.50
2022-11-16T10:51:53.354Z,32.60
2022-11-16T10:54:23.588Z,32.60
2022-11-16T10:57:18.945Z,32.60
2022-11-16T10:59:57.958Z,32.50
2022-11-16T11:02:38.808Z,32.10
2022-11-16T11:05:22.990Z,32.30
2022-11-16T11:08:03.944Z,32.20
2022-11-16T11:10:44.579Z,32.20
2022-11-16T11:13:28.036Z,32.00
2022-11-16T11:16:19.013Z,31.90
2022-11-16T11:18:50.178Z,32.00
2022-11-16T11:21:23.199Z,32.00
2022-11-16T11:24:16.112Z,32.00
2022-11-16T11:27:00.389Z,31.90
2022-11-16T11:29:36.452Z,31.50
2022-11-16T11:32:19.320Z,31.30
2022-11-16T11:34:57.993Z,31.30
2022-11-16T11:37:34.632Z,31.40
2022-11-16T11:40:29.069Z,31.50
2022-11-16T11:43:05.937Z,31.50
2022-11-16T11:45:58.672Z,30.80
2022-11-16T11:49:03.054Z,30.60
2022-11-16T11:51:42.119Z,30.80
2022-11-16T11:54:31.903Z,31.10
2022-11-16T11:57:04.295Z,31.10
2022-11-16T11:59:34.722Z,31.20
2022-11-16T12:02:44.301Z,30.70
2022-11-16T12:05:53.507Z,30.40
2022-11-16T12:09:02.815Z,30.60
2022-11-16T12:12:01.656Z,30.70
2022-11-16T12:15:04.804Z,30.70
2022-11-16T12:18:14.010Z,30.80
2022-11-16T12:21:24.187Z,31.00
2022-11-16T12:24:28.715Z,31.00
2022-11-16T12:27:30.031Z,30.80
2022-11-16T12:30:20.901Z,30.80
2022-11-16T12:33:16.678Z,30.70
2022-11-16T12:36:06.666Z,30.60
2022-11-16T12:39:16.113Z,30.60
2022-11-16T12:42:26.186Z,30.70
2022-11-16T12:45:20.971Z,30.50
2022-11-16T12:48:30.121Z,30.40
2022-11-16T12:51:39.658Z,30.50
2022-11-16T12:55:19.110Z,30.40
2022-11-16T12:58:15.372Z,30.20
2022-11-16T13:01:24.693Z,30.10
2022-11-16T13:04:05.258Z,29.90
2022-11-16T13:06:56.512Z,29.60
2022-11-16T13:09:34.658Z,29.90
2022-11-16T13:12:15.707Z,30.40
2022-11-16T13:14:50.061Z,30.40
2022-11-16T13:17:25.969Z,30.30
2022-11-16T13:20:37.083Z,30.40
2022-11-16T13:23:40.696Z,30.40
2022-11-16T13:26:34.925Z,30.30
2022-11-16T13:29:31.882Z,30.20
2022-11-16T13:32:41.437Z,30.30
2022-11-16T13:35:22.936Z,30.50
2022-11-16T13:37:56.591Z,30.50
2022-11-16T13:40:30.324Z,30.30
2022-11-16T13:43:24.229Z,30.30
2022-11-16T13:46:02.347Z,30.20
2022-11-16T13:48:37.248Z,30.20
2022-11-16T13:51:10.901Z,30.10
2022-11-16T13:54:43.172Z,30.00
2022-11-16T13:56:53.655Z,29.80
2022-11-16T13:59:42.795Z,29.40
2022-11-16T14:02:42.832Z,29.20
2022-11-16T14:05:52.127Z,28.80
2022-11-16T14:08:50.462Z,28.80
2022-11-16T14:11:41.990Z,28.60
2022-11-16T14:14:15.244Z,28.90
2022-11-16T14:16:52.132Z,28.90
2022-11-16T14:20:00.249Z,28.90
2022-11-16T14:22:56.907Z,28.90
2022-11-16T14:25:39.304Z,29.00
2022-11-16T14:28:49.415Z,28.90
2022-11-16T14:31:47.008Z,28.40
2022-11-16T14:34:46.387Z,28.40
2022-11-16T14:37:40.732Z,28.70
2022-11-16T14:40:18.609Z,29.00
2022-11-16T14:43:16.414Z,28.90
2022-11-16T14:46:27.834Z,28.90
2022-11-16T14:49:01.669Z,28.90
2022-11-16T14:51:42.747Z,29.00
2022-11-16T14:54:38.046Z,29.00
2022-11-16T14:57:19.359Z,28.90
2022-11-16T14:59:50.330Z,28.80
2022-11-16T15:02:27.767Z,28.70
2022-11-16T15:05:01.778Z,28.80
2022-11-16T15:07:33.368Z,28.70
2022-11-16T15:10:04.370Z,28.70
2022-11-16T15:12:43.577Z,28.80
2022-11-16T15:15:28.939Z,28.80
2022-11-16T15:18:19.185Z,28.90
2022-11-16T15:20:53.346Z,28.80
2022-11-16T15:23:29.108Z,28.80
2022-11-16T15:26:03.841Z,28.70
2022-11-16T15:28:35.793Z,28.20
2022-11-16T15:31:08.687Z,27.90
2022-11-16T15:33:43.345Z,27.80
2022-11-16T15:36:42.941Z,27.60
2022-11-16T15:39:25.187Z,28.00
2022-11-16T15:42:00.549Z,27.90
2022-11-16T15:44:35.072Z,27.60
2022-11-16T15:47:06.412Z,27.90
2022-11-16T15:49:42.602Z,28.10
2022-11-16T15:52:13.696Z,28.20
2022-11-16T15:55:03.461Z,28.20
2022-11-16T15:57:34.063Z,28.10
2022-11-16T16:00:04.799Z,28.20
2022-11-16T16:02:35.785Z,28.20
2022-11-16T16:05:06.971Z,28.30
2022-11-16T16:07:42.391Z,28.10
2022-11-16T16:10:30.975Z,28.30
2022-11-16T16:13:03.205Z,28.10
2022-11-16T16:15:38.254Z,28.10
2022-11-16T16:18:40.824Z,28.20
2022-11-16T16:21:15.962Z,28.00
2022-11-16T16:23:52.604Z,27.60
2022-11-16T16:26:25.034Z,27.90
2022-11-16T16:28:55.517Z,28.10
2022-11-16T16:31:26.324Z,27.90
2022-11-16T16:33:57.625Z,27.80
2022-11-16T16:36:28.710Z,27.50
2022-11-16T16:38:59.759Z,27.50
2022-11-16T16:41:30.975Z,27.80
2022-11-16T16:44:02.037Z,28.00
2022-11-16T16:46:32.827Z,28.10
2022-11-16T16:49:03.414Z,28.10
2022-11-16T16:51:34.191Z,27.90
2022-11-16T16:54:05.115Z,27.50
2022-11-16T16:56:36.070Z,27.60
2022-11-16T16:59:08.192Z,27.80
2022-11-16T17:01:38.988Z,27.90
2022-11-16T17:04:09.817Z,27.90
2022-11-16T17:06:46.180Z,27.90
2022-11-16T17:09:17.177Z,27.80
2022-11-16T17:11:49.956Z,27.60
2022-11-16T17:14:22.978Z,27.30
2022-11-16T17:16:54.558Z,27.40
2022-11-16T17:19:25.074Z,27.50
2022-11-16T17:21:55.639Z,27.60
2022-11-16T17:24:25.644Z,27.70
2022-11-16T17:26:56.795Z,27.80
2022-11-16T17:29:27.545Z,27.80
2022-11-16T17:31:58.315Z,27.90
2022-11-16T17:34:28.917Z,27.80
2022-11-16T17:36:59.435Z,27.70
2022-11-16T17:39:30.525Z,27.50
2022-11-16T17:42:00.952Z,27.20
2022-11-16T17:44:31.930Z,27.20
2022-11-16T17:47:02.711Z,27.20
2022-11-16T17:49:33.082Z,27.20
2022-11-16T17:52:04.107Z,27.30
2022-11-16T17:54:34.942Z,27.40
2022-11-16T17:57:05.840Z,27.30
2022-11-16T17:59:37.417Z,27.40
2022-11-16T18:02:08.739Z,27.50
2022-11-16T18:04:40.027Z,27.50
2022-11-16T18:07:10.259Z,27.60
2022-11-16T18:09:41.836Z,27.60
2022-11-16T18:12:12.584Z,27.50
2022-11-16T18:15:06.359Z,27.30
2022-11-16T18:17:38.060Z,27.20
2022-11-16T18:20:09.895Z,27.10
2022-11-16T18:22:40.308Z,27.10
2022-11-16T18:25:10.827Z,27.20
2022-11-16T18:27:41.513Z,27.10
2022-11-16T18:30:15.205Z,27.20
2022-11-16T18:32:45.784Z,27.30
2022-11-16T18:35:16.728Z,27.30
2022-11-16T18:37:47.818Z,27.30
2022-11-16T18:40:19.561Z,27.30
2022-11-16T18:42:50.080Z,27.40
2022-11-16T18:45:21.504Z,27.30
2022-11-16T18:47:51.950Z,27.20
2022-11-16T18:50:26.712Z,27.10
2022-11-16T18:52:58.433Z,27.10
2022-11-16T18:55:28.508Z,27.10
2022-11-16T18:57:58.648Z,27.10
2022-11-16T19:00:29.417Z,27.10
2022-11-16T19:02:59.895Z,27.10
2022-11-16T19:05:30.072Z,27.00
2022-11-16T19:08:00.401Z,27.00
2022-11-16T19:10:31.115Z,26.90
2022-11-16T19:13:07.013Z,27.00
2022-11-16T19:15:37.658Z,26.90
2022-11-16T19:18:21.052Z,26.80
2022-11-16T19:20:52.223Z,26.70
2022-11-16T19:23:22.657Z,26.60
2022-11-16T19:26:03.574Z,26.80
2022-11-16T19:28:42.174Z,26.80
2022-11-16T19:31:17.391Z,26.60
2022-11-16T19:33:48.448Z,26.50
2022-11-16T19:36:20.422Z,26.50
2022-11-16T19:38:51.706Z,26.50
2022-11-16T19:41:23.913Z,26.50
2022-11-16T19:44:00.629Z,26.50
2022-11-16T19:46:32.873Z,26.60
2022-11-16T19:49:04.556Z,26.70
2022-11-16T19:51:36.192Z,26.50
2022-11-16T19:54:07.154Z,26.40
2022-11-16T19:56:37.506Z,26.40
2022-11-16T19:59:07.858Z,26.40
2022-11-16T20:01:38.443Z,26.30
2022-11-16T20:04:08.883Z,26.40
2022-11-16T20:06:40.518Z,26.40
2022-11-16T20:09:13.676Z,26.50
2022-11-16T20:11:44.660Z,26.30
2022-11-16T20:14:16.415Z,26.30
2022-11-16T20:16:51.230Z,26.20
2022-11-16T20:19:22.384Z,26.20
2022-11-16T20:21:52.676Z,26.20
2022-11-16T20:24:22.763Z,26.10
2022-11-16T20:26:53.617Z,26.10
2022-11-16T20:29:23.794Z,26.20
2022-11-16T20:31:54.621Z,26.40
2022-11-16T20:34:24.984Z,26.20
2022-11-16T20:36:55.462Z,26.40
2022-11-16T20:39:25.803Z,26.30
2022-11-16T20:41:55.876Z,26.40
2022-11-16T20:44:26.225Z,26.30
2022-11-16T20:46:56.577Z,26.40
2022-11-16T20:49:26.978Z,26.40
2022-11-16T20:51:57.383Z,26.40
2022-11-16T20:54:27.739Z,26.20
2022-11-16T20:56:58.323Z,26.20
2022-11-16T20:59:28.453Z,26.10
2022-11-16T21:01:58.879Z,26.00
2022-11-16T21:04:28.939Z,26.00
2022-11-16T21:06:59.339Z,26.10
2022-11-16T21:09:49.964Z,26.10
2022-11-16T21:12:42.868Z,25.90
2022-11-16T21:15:13.592Z,25.80
2022-11-16T21:17:44.014Z,25.80
2022-11-16T21:20:27.025Z,25.70
2022-11-16T21:22:59.441Z,25.60
2022-11-16T21:25:29.928Z,25.70
2022-11-16T21:28:00.733Z,25.90
2022-11-16T21:30:31.509Z,26.00
2022-11-16T21:33:01.892Z,25.80
2022-11-16T21:35:33.045Z,25.70
2022-11-16T21:38:03.904Z,25.70
2022-11-16T21:40:34.652Z,25.60
2022-11-16T21:43:05.004Z,25.60
2022-11-16T21:45:36.768Z,25.70
2022-11-16T21:48:07.306Z,25.70
2022-11-16T21:50:37.481Z,25.60
2022-11-16T21:53:08.503Z,25.60
2022-11-16T21:55:39.428Z,25.50
2022-11-16T21:58:10.179Z,25.50
2022-11-16T22:00:40.546Z,25.50
2022-11-16T22:03:12.047Z,25.50
2022-11-16T22:06:02.651Z,25.40
2022-11-16T22:08:33.048Z,25.70
2022-11-16T22:11:03.842Z,25.70
2022-11-16T22:13:34.957Z,25.80
2022-11-16T22:16:13.593Z,25.70
2022-11-16T22:18:44.617Z,25.40
2022-11-16T22:21:15.206Z,25.30
2022-11-16T22:23:46.058Z,25.50
2022-11-16T22:26:16.679Z,25.60
2022-11-16T22:28:47.868Z,25.60
2022-11-16T22:31:18.643Z,25.60
2022-11-16T22:33:53.100Z,25.50
2022-11-16T22:36:23.463Z,25.20
2022-11-16T22:38:54.613Z,25.10
2022-11-16T22:41:25.478Z,25.20
2022-11-16T22:43:56.125Z,25.10
2022-11-16T22:46:26.546Z,25.00
2022-11-16T22:48:57.338Z,25.20
2022-11-16T22:51:30.653Z,25.40
2022-11-16T22:54:03.238Z,25.40
2022-11-16T22:56:35.200Z,25.40
2022-11-16T22:59:06.974Z,25.40
2022-11-16T23:01:38.034Z,25.30
2022-11-16T23:04:08.658Z,25.30
2022-11-16T23:06:38.828Z,25.40
2022-11-16T23:09:09.627Z,25.40
2022-11-16T23:12:00.435Z,25.50
2022-11-16T23:14:50.759Z,25.40
2022-11-16T23:17:21.455Z,25.40
2022-11-16T23:20:16.248Z,25.40
2022-11-16T23:23:07.142Z,25.30
2022-11-16T23:25:57.249Z,25.20
2022-11-16T23:28:28.170Z,25.10
2022-11-16T23:30:59.003Z,25.10
2022-11-16T23:33:49.205Z,25.20
2022-11-16T23:36:20.352Z,25.20
2022-11-16T23:38:51.123Z,25.30
2022-11-16T23:41:41.494Z,25.30
2022-11-16T23:44:12.034Z,25.30
2022-11-16T23:46:42.837Z,25.40
2022-11-16T23:49:13.374Z,25.40
2022-11-16T23:51:43.850Z,25.60
2022-11-16T23:54:14.211Z,25.70
2022-11-16T23:56:44.972Z,25.70
2022-11-16T23:59:15.426Z,25.90
